sensor_id;sensor_type;location;lat;lon;timestamp;P1;durP1;ratioP1;P2;durP2;ratioP2
8594;SDS011;4335;48.860;9.198;2023-09-19T00:00:19;1.53;;;1.10;;
8594;SDS011;4335;48.860;9.198;2023-09-19T00:02:51;1.93;;;1.20;;
8594;SDS011;4335;48.860;9.198;2023-09-19T00:05:18;1.20;;;1.10;;
8594;SDS011;4335;48.860;9.198;2023-09-19T00:07:55;1.63;;;1.20;;
8594;SDS011;4335;48.860;9.198;2023-09-19T00:10:24;2.90;;;1.47;;
8594;SDS011;4335;48.860;9.198;2023-09-19T00:12:55;1.30;;;1.20;;
8594;SDS011;4335;48.860;9.198;2023-09-19T00:15:21;2.20;;;1.47;;
8594;SDS011;4335;48.860;9.198;2023-09-19T00:17:48;1.50;;;1.20;;
8594;SDS011;4335;48.860;9.198;2023-09-19T00:20:20;1.40;;;1.07;;
8594;SDS011;4335;48.860;9.198;2023-09-19T00:22:58;1.40;;;1.30;;
8594;SDS011;4335;48.860;9.198;2023-09-19T00:25:30;3.47;;;1.30;;
8594;SDS011;4335;48.860;9.198;2023-09-19T00:28:10;1.67;;;1.10;;
8594;SDS011;4335;48.860;9.198;2023-09-19T00:30:37;2.20;;;1.20;;
8594;SDS011;4335;48.860;9.198;2023-09-19T00:33:04;1.80;;;1.10;;
8594;SDS011;4335;48.860;9.198;2023-09-19T00:35:36;1.73;;;1.47;;
8594;SDS011;4335;48.860;9.198;2023-09-19T00:38:05;1.47;;;1.20;;
8594;SDS011;4335;48.860;9.198;2023-09-19T00:40:35;1.30;;;1.20;;
8594;SDS011;4335;48.860;9.198;2023-09-19T00:43:05;1.80;;;1.30;;
8594;SDS011;4335;48.860;9.198;2023-09-19T00:45:32;3.03;;;1.53;;
8594;SDS011;4335;48.860;9.198;2023-09-19T00:48:01;1.30;;;1.10;;
8594;SDS011;4335;48.860;9.198;2023-09-19T00:50:37;1.83;;;1.30;;
8594;SDS011;4335;48.860;9.198;2023-09-19T00:53:10;1.17;;;0.93;;
8594;SDS011;4335;48.860;9.198;2023-09-19T00:55:46;1.50;;;1.30;;
8594;SDS011;4335;48.860;9.198;2023-09-19T00:58:18;1.67;;;1.30;;
8594;SDS011;4335;48.860;9.198;2023-09-19T01:00:48;1.20;;;1.03;;
8594;SDS011;4335;48.860;9.198;2023-09-19T01:03:15;2.67;;;1.20;;
8594;SDS011;4335;48.860;9.198;2023-09-19T01:05:43;3.30;;;1.60;;
8594;SDS011;4335;48.860;9.198;2023-09-19T01:08:10;2.63;;;1.17;;
8594;SDS011;4335;48.860;9.198;2023-09-19T01:10:37;2.23;;;1.30;;
8594;SDS011;4335;48.860;9.198;2023-09-19T01:13:11;1.37;;;1.27;;
8594;SDS011;4335;48.860;9.198;2023-09-19T01:15:49;3.30;;;1.50;;
8594;SDS011;4335;48.860;9.198;2023-09-19T01:18:30;1.50;;;1.10;;
8594;SDS011;4335;48.860;9.198;2023-09-19T01:21:07;2.07;;;1.20;;
8594;SDS011;4335;48.860;9.198;2023-09-19T01:23:40;1.30;;;1.20;;
8594;SDS011;4335;48.860;9.198;2023-09-19T01:26:43;2.20;;;1.10;;
8594;SDS011;4335;48.860;9.198;2023-09-19T01:29:36;1.90;;;1.30;;
8594;SDS011;4335;48.860;9.198;2023-09-19T01:32:06;1.93;;;1.40;;
8594;SDS011;4335;48.860;9.198;2023-09-19T01:34:44;1.47;;;1.37;;
8594;SDS011;4335;48.860;9.198;2023-09-19T01:37:12;2.67;;;1.00;;
8594;SDS011;4335;48.860;9.198;2023-09-19T01:39:44;2.77;;;1.50;;
8594;SDS011;4335;48.860;9.198;2023-09-19T01:42:17;1.40;;;1.10;;
8594;SDS011;4335;48.860;9.198;2023-09-19T01:44:51;3.97;;;1.17;;
8594;SDS011;4335;48.860;9.198;2023-09-19T01:47:28;1.20;;;1.00;;
8594;SDS011;4335;48.860;9.198;2023-09-19T01:50:02;1.20;;;1.10;;
8594;SDS011;4335;48.860;9.198;2023-09-19T01:52:40;1.67;;;1.10;;
8594;SDS011;4335;48.860;9.198;2023-09-19T01:55:14;2.13;;;1.00;;
8594;SDS011;4335;48.860;9.198;2023-09-19T01:57:45;2.00;;;1.23;;
8594;SDS011;4335;48.860;9.198;2023-09-19T02:00:18;2.13;;;1.00;;
8594;SDS011;4335;48.860;9.198;2023-09-19T02:02:48;1.70;;;1.20;;
8594;SDS011;4335;48.860;9.198;2023-09-19T02:05:23;2.23;;;1.10;;
8594;SDS011;4335;48.860;9.198;2023-09-19T02:07:53;1.60;;;1.10;;
8594;SDS011;4335;48.860;9.198;2023-09-19T02:10:21;1.93;;;1.10;;
8594;SDS011;4335;48.860;9.198;2023-09-19T02:12:48;2.90;;;1.30;;
8594;SDS011;4335;48.860;9.198;2023-09-19T02:15:16;1.53;;;1.10;;
8594;SDS011;4335;48.860;9.198;2023-09-19T02:17:42;1.10;;;1.00;;
8594;SDS011;4335;48.860;9.198;2023-09-19T02:20:12;1.60;;;1.20;;
8594;SDS011;4335;48.860;9.198;2023-09-19T02:22:42;2.13;;;1.40;;
8594;SDS011;4335;48.860;9.198;2023-09-19T02:25:10;2.07;;;1.20;;
8594;SDS011;4335;48.860;9.198;2023-09-19T02:27:42;1.73;;;1.43;;
8594;SDS011;4335;48.860;9.198;2023-09-19T02:30:12;2.40;;;1.50;;
8594;SDS011;4335;48.860;9.198;2023-09-19T02:32:41;1.43;;;1.20;;
8594;SDS011;4335;48.860;9.198;2023-09-19T02:35:12;2.33;;;1.10;;
8594;SDS011;4335;48.860;9.198;2023-09-19T02:37:46;1.83;;;1.03;;
8594;SDS011;4335;48.860;9.198;2023-09-19T02:40:12;2.07;;;1.07;;
8594;SDS011;4335;48.860;9.198;2023-09-19T02:42:48;1.80;;;1.13;;
8594;SDS011;4335;48.860;9.198;2023-09-19T02:45:21;1.20;;;1.10;;
8594;SDS011;4335;48.860;9.198;2023-09-19T02:47:48;2.00;;;1.10;;
8594;SDS011;4335;48.860;9.198;2023-09-19T02:50:24;1.40;;;1.20;;
8594;SDS011;4335;48.860;9.198;2023-09-19T02:52:57;1.27;;;1.10;;
8594;SDS011;4335;48.860;9.198;2023-09-19T02:55:27;1.30;;;1.20;;
8594;SDS011;4335;48.860;9.198;2023-09-19T02:57:54;2.60;;;1.10;;
8594;SDS011;4335;48.860;9.198;2023-09-19T03:00:21;2.40;;;1.10;;
8594;SDS011;4335;48.860;9.198;2023-09-19T03:02:48;1.70;;;1.13;;
8594;SDS011;4335;48.860;9.198;2023-09-19T03:05:15;1.43;;;1.10;;
8594;SDS011;4335;48.860;9.198;2023-09-19T03:07:46;1.27;;;1.00;;
8594;SDS011;4335;48.860;9.198;2023-09-19T03:10:15;2.37;;;1.80;;
8594;SDS011;4335;48.860;9.198;2023-09-19T03:12:49;1.13;;;1.03;;
8594;SDS011;4335;48.860;9.198;2023-09-19T03:15:18;2.07;;;1.63;;
8594;SDS011;4335;48.860;9.198;2023-09-19T03:17:46;1.80;;;1.50;;
8594;SDS011;4335;48.860;9.198;2023-09-19T03:20:16;1.80;;;1.50;;
8594;SDS011;4335;48.860;9.198;2023-09-19T03:22:52;2.97;;;1.80;;
8594;SDS011;4335;48.860;9.198;2023-09-19T03:25:19;2.83;;;2.03;;
8594;SDS011;4335;48.860;9.198;2023-09-19T03:27:48;3.10;;;1.90;;
8594;SDS011;4335;48.860;9.198;2023-09-19T03:30:17;1.80;;;1.70;;
8594;SDS011;4335;48.860;9.198;2023-09-19T03:32:50;2.27;;;1.33;;
8594;SDS011;4335;48.860;9.198;2023-09-19T03:35:25;1.20;;;1.10;;
8594;SDS011;4335;48.860;9.198;2023-09-19T03:38:05;1.73;;;1.10;;
8594;SDS011;4335;48.860;9.198;2023-09-19T03:40:32;3.53;;;1.70;;
8594;SDS011;4335;48.860;9.198;2023-09-19T03:43:00;2.03;;;1.27;;
8594;SDS011;4335;48.860;9.198;2023-09-19T03:45:35;1.43;;;1.33;;
8594;SDS011;4335;48.860;9.198;2023-09-19T03:48:07;2.43;;;1.33;;
8594;SDS011;4335;48.860;9.198;2023-09-19T03:50:34;1.47;;;1.10;;
8594;SDS011;4335;48.860;9.198;2023-09-19T03:53:01;1.67;;;1.10;;
8594;SDS011;4335;48.860;9.198;2023-09-19T03:55:35;2.70;;;1.33;;
8594;SDS011;4335;48.860;9.198;2023-09-19T03:58:04;1.27;;;1.10;;
8594;SDS011;4335;48.860;9.198;2023-09-19T04:00:30;1.80;;;1.47;;
8594;SDS011;4335;48.860;9.198;2023-09-19T04:03:00;2.93;;;1.40;;
8594;SDS011;4335;48.860;9.198;2023-09-19T04:05:37;2.17;;;1.33;;
8594;SDS011;4335;48.860;9.198;2023-09-19T04:08:04;1.90;;;1.43;;
8594;SDS011;4335;48.860;9.198;2023-09-19T04:10:34;1.57;;;1.33;;
8594;SDS011;4335;48.860;9.198;2023-09-19T04:13:04;1.57;;;1.47;;
8594;SDS011;4335;48.860;9.198;2023-09-19T04:15:32;3.77;;;1.70;;
8594;SDS011;4335;48.860;9.198;2023-09-19T04:17:59;2.53;;;1.17;;
8594;SDS011;4335;48.860;9.198;2023-09-19T04:20:26;1.67;;;1.23;;
8594;SDS011;4335;48.860;9.198;2023-09-19T04:22:58;2.10;;;1.33;;
8594;SDS011;4335;48.860;9.198;2023-09-19T04:25:25;2.27;;;1.20;;
8594;SDS011;4335;48.860;9.198;2023-09-19T04:28:01;1.50;;;1.40;;
8594;SDS011;4335;48.860;9.198;2023-09-19T04:30:29;2.03;;;1.60;;
8594;SDS011;4335;48.860;9.198;2023-09-19T04:33:02;1.70;;;1.40;;
8594;SDS011;4335;48.860;9.198;2023-09-19T04:35:30;2.07;;;1.60;;
8594;SDS011;4335;48.860;9.198;2023-09-19T04:37:57;4.40;;;1.67;;
8594;SDS011;4335;48.860;9.198;2023-09-19T04:40:28;2.13;;;1.40;;
8594;SDS011;4335;48.860;9.198;2023-09-19T04:42:58;2.17;;;1.40;;
8594;SDS011;4335;48.860;9.198;2023-09-19T04:45:25;1.83;;;1.60;;
8594;SDS011;4335;48.860;9.198;2023-09-19T04:47:55;3.57;;;2.03;;
8594;SDS011;4335;48.860;9.198;2023-09-19T04:50:23;2.70;;;1.70;;
8594;SDS011;4335;48.860;9.198;2023-09-19T04:52:53;1.90;;;1.53;;
8594;SDS011;4335;48.860;9.198;2023-09-19T04:55:28;2.10;;;1.40;;
8594;SDS011;4335;48.860;9.198;2023-09-19T04:57:57;2.33;;;1.40;;
8594;SDS011;4335;48.860;9.198;2023-09-19T05:00:37;2.33;;;1.57;;
8594;SDS011;4335;48.860;9.198;2023-09-19T05:03:03;2.13;;;1.70;;
8594;SDS011;4335;48.860;9.198;2023-09-19T05:05:34;5.70;;;2.57;;
8594;SDS011;4335;48.860;9.198;2023-09-19T05:08:00;3.73;;;2.37;;
8594;SDS011;4335;48.860;9.198;2023-09-19T05:10:30;4.00;;;1.70;;
8594;SDS011;4335;48.860;9.198;2023-09-19T05:12:57;3.20;;;1.97;;
8594;SDS011;4335;48.860;9.198;2023-09-19T05:15:24;3.20;;;1.80;;
8594;SDS011;4335;48.860;9.198;2023-09-19T05:17:54;2.27;;;1.70;;
8594;SDS011;4335;48.860;9.198;2023-09-19T05:20:20;1.90;;;1.70;;
8594;SDS011;4335;48.860;9.198;2023-09-19T05:22:59;4.27;;;1.80;;
8594;SDS011;4335;48.860;9.198;2023-09-19T05:25:27;4.47;;;1.50;;
8594;SDS011;4335;48.860;9.198;2023-09-19T05:27:58;2.20;;;1.80;;
8594;SDS011;4335;48.860;9.198;2023-09-19T05:30:29;4.93;;;2.00;;
8594;SDS011;4335;48.860;9.198;2023-09-19T05:32:55;2.33;;;1.90;;
8594;SDS011;4335;48.860;9.198;2023-09-19T05:35:22;4.63;;;2.00;;
8594;SDS011;4335;48.860;9.198;2023-09-19T05:37:50;4.77;;;2.30;;
8594;SDS011;4335;48.860;9.198;2023-09-19T05:40:20;3.17;;;1.90;;
8594;SDS011;4335;48.860;9.198;2023-09-19T05:42:47;2.83;;;1.67;;
8594;SDS011;4335;48.860;9.198;2023-09-19T05:45:15;2.90;;;1.90;;
8594;SDS011;4335;48.860;9.198;2023-09-19T05:47:50;3.73;;;2.03;;
8594;SDS011;4335;48.860;9.198;2023-09-19T05:50:23;2.60;;;1.70;;
8594;SDS011;4335;48.860;9.198;2023-09-19T05:52:53;3.00;;;2.57;;
8594;SDS011;4335;48.860;9.198;2023-09-19T05:55:33;3.57;;;2.80;;
8594;SDS011;4335;48.860;9.198;2023-09-19T05:58:00;3.97;;;2.30;;
8594;SDS011;4335;48.860;9.198;2023-09-19T06:00:28;2.80;;;2.00;;
8594;SDS011;4335;48.860;9.198;2023-09-19T06:03:00;2.47;;;1.90;;
8594;SDS011;4335;48.860;9.198;2023-09-19T06:05:29;3.10;;;1.90;;
8594;SDS011;4335;48.860;9.198;2023-09-19T06:07:57;2.27;;;1.70;;
8594;SDS011;4335;48.860;9.198;2023-09-19T06:10:25;3.07;;;2.00;;
8594;SDS011;4335;48.860;9.198;2023-09-19T06:12:58;2.97;;;1.87;;
8594;SDS011;4335;48.860;9.198;2023-09-19T06:15:25;3.07;;;2.20;;
8594;SDS011;4335;48.860;9.198;2023-09-19T06:17:58;3.30;;;2.17;;
8594;SDS011;4335;48.860;9.198;2023-09-19T06:20:27;3.03;;;1.97;;
8594;SDS011;4335;48.860;9.198;2023-09-19T06:22:54;3.83;;;2.10;;
8594;SDS011;4335;48.860;9.198;2023-09-19T06:25:21;2.20;;;2.00;;
8594;SDS011;4335;48.860;9.198;2023-09-19T06:27:48;2.93;;;1.93;;
8594;SDS011;4335;48.860;9.198;2023-09-19T06:30:17;3.90;;;2.20;;
8594;SDS011;4335;48.860;9.198;2023-09-19T06:32:47;3.07;;;2.47;;
8594;SDS011;4335;48.860;9.198;2023-09-19T06:35:31;6.20;;;3.13;;
8594;SDS011;4335;48.860;9.198;2023-09-19T06:38:02;2.77;;;2.03;;
8594;SDS011;4335;48.860;9.198;2023-09-19T06:40:31;6.10;;;2.43;;
8594;SDS011;4335;48.860;9.198;2023-09-19T06:42:59;3.00;;;2.10;;
8594;SDS011;4335;48.860;9.198;2023-09-19T06:45:27;3.30;;;2.23;;
8594;SDS011;4335;48.860;9.198;2023-09-19T06:47:57;5.03;;;1.90;;
8594;SDS011;4335;48.860;9.198;2023-09-19T06:50:25;2.20;;;2.00;;
8594;SDS011;4335;48.860;9.198;2023-09-19T06:52:58;4.67;;;2.00;;
8594;SDS011;4335;48.860;9.198;2023-09-19T06:55:27;3.20;;;2.70;;
8594;SDS011;4335;48.860;9.198;2023-09-19T06:57:56;4.53;;;2.57;;
8594;SDS011;4335;48.860;9.198;2023-09-19T07:00:27;4.80;;;2.40;;
8594;SDS011;4335;48.860;9.198;2023-09-19T07:02:57;3.80;;;2.53;;
8594;SDS011;4335;48.860;9.198;2023-09-19T07:05:25;3.77;;;2.20;;
8594;SDS011;4335;48.860;9.198;2023-09-19T07:07:53;3.40;;;1.90;;
8594;SDS011;4335;48.860;9.198;2023-09-19T07:10:24;3.83;;;2.17;;
8594;SDS011;4335;48.860;9.198;2023-09-19T07:12:55;2.23;;;1.90;;
8594;SDS011;4335;48.860;9.198;2023-09-19T07:15:22;3.27;;;2.27;;
8594;SDS011;4335;48.860;9.198;2023-09-19T07:17:52;3.60;;;2.47;;
8594;SDS011;4335;48.860;9.198;2023-09-19T07:20:19;2.47;;;1.90;;
8594;SDS011;4335;48.860;9.198;2023-09-19T07:22:46;5.93;;;2.17;;
8594;SDS011;4335;48.860;9.198;2023-09-19T07:25:18;4.20;;;2.33;;
8594;SDS011;4335;48.860;9.198;2023-09-19T07:27:48;6.60;;;4.87;;
8594;SDS011;4335;48.860;9.198;2023-09-19T07:30:16;2.90;;;2.33;;
8594;SDS011;4335;48.860;9.198;2023-09-19T07:32:43;3.00;;;2.70;;
8594;SDS011;4335;48.860;9.198;2023-09-19T07:35:09;2.40;;;1.87;;
8594;SDS011;4335;48.860;9.198;2023-09-19T07:37:37;2.20;;;1.80;;
8594;SDS011;4335;48.860;9.198;2023-09-19T07:40:07;2.97;;;1.90;;
8594;SDS011;4335;48.860;9.198;2023-09-19T07:42:34;3.13;;;1.90;;
8594;SDS011;4335;48.860;9.198;2023-09-19T07:45:09;3.77;;;1.77;;
8594;SDS011;4335;48.860;9.198;2023-09-19T07:47:43;3.67;;;1.90;;
8594;SDS011;4335;48.860;9.198;2023-09-19T07:50:11;3.60;;;1.80;;
8594;SDS011;4335;48.860;9.198;2023-09-19T07:52:37;4.83;;;2.07;;
8594;SDS011;4335;48.860;9.198;2023-09-19T07:55:05;2.97;;;1.50;;
8594;SDS011;4335;48.860;9.198;2023-09-19T07:57:41;3.53;;;1.77;;
8594;SDS011;4335;48.860;9.198;2023-09-19T08:00:13;2.80;;;1.67;;
8594;SDS011;4335;48.860;9.198;2023-09-19T08:02:40;3.13;;;1.67;;
8594;SDS011;4335;48.860;9.198;2023-09-19T08:05:08;5.40;;;1.80;;
8594;SDS011;4335;48.860;9.198;2023-09-19T08:07:35;2.37;;;1.43;;
8594;SDS011;4335;48.860;9.198;2023-09-19T08:10:10;5.77;;;1.60;;
8594;SDS011;4335;48.860;9.198;2023-09-19T08:12:44;2.37;;;1.60;;
8594;SDS011;4335;48.860;9.198;2023-09-19T08:15:13;3.20;;;1.63;;
8594;SDS011;4335;48.860;9.198;2023-09-19T08:17:42;2.93;;;1.73;;
8594;SDS011;4335;48.860;9.198;2023-09-19T08:20:09;5.00;;;1.97;;
8594;SDS011;4335;48.860;9.198;2023-09-19T08:22:42;2.03;;;1.70;;
8594;SDS011;4335;48.860;9.198;2023-09-19T08:25:09;3.63;;;1.83;;
8594;SDS011;4335;48.860;9.198;2023-09-19T08:27:36;2.47;;;1.40;;
8594;SDS011;4335;48.860;9.198;2023-09-19T08:30:02;3.90;;;1.90;;
8594;SDS011;4335;48.860;9.198;2023-09-19T08:32:30;2.90;;;1.50;;
8594;SDS011;4335;48.860;9.198;2023-09-19T08:34:57;4.03;;;2.30;;
8594;SDS011;4335;48.860;9.198;2023-09-19T08:37:27;2.33;;;1.70;;
8594;SDS011;4335;48.860;9.198;2023-09-19T08:39:54;3.10;;;2.03;;
8594;SDS011;4335;48.860;9.198;2023-09-19T08:42:23;3.87;;;1.43;;
8594;SDS011;4335;48.860;9.198;2023-09-19T08:44:50;4.43;;;2.10;;
8594;SDS011;4335;48.860;9.198;2023-09-19T08:47:20;1.70;;;1.33;;
8594;SDS011;4335;48.860;9.198;2023-09-19T08:50:01;2.77;;;1.73;;
8594;SDS011;4335;48.860;9.198;2023-09-19T08:52:43;2.20;;;1.70;;
8594;SDS011;4335;48.860;9.198;2023-09-19T08:55:12;1.70;;;1.33;;
8594;SDS011;4335;48.860;9.198;2023-09-19T08:57:45;4.00;;;2.50;;
8594;SDS011;4335;48.860;9.198;2023-09-19T09:00:16;3.20;;;1.80;;
8594;SDS011;4335;48.860;9.198;2023-09-19T09:02:50;4.27;;;2.00;;
8594;SDS011;4335;48.860;9.198;2023-09-19T09:05:23;2.70;;;1.77;;
8594;SDS011;4335;48.860;9.198;2023-09-19T09:07:50;3.50;;;2.37;;
8594;SDS011;4335;48.860;9.198;2023-09-19T09:10:18;2.80;;;2.20;;
8594;SDS011;4335;48.860;9.198;2023-09-19T09:12:47;2.67;;;1.83;;
8594;SDS011;4335;48.860;9.198;2023-09-19T09:15:17;3.07;;;2.57;;
8594;SDS011;4335;48.860;9.198;2023-09-19T09:17:46;3.90;;;2.60;;
8594;SDS011;4335;48.860;9.198;2023-09-19T09:20:14;2.10;;;1.50;;
8594;SDS011;4335;48.860;9.198;2023-09-19T09:22:48;2.20;;;1.70;;
8594;SDS011;4335;48.860;9.198;2023-09-19T09:25:23;1.60;;;1.30;;
8594;SDS011;4335;48.860;9.198;2023-09-19T09:28:13;2.03;;;1.60;;
8594;SDS011;4335;48.860;9.198;2023-09-19T09:30:45;3.22;;;1.98;;
8594;SDS011;4335;48.860;9.198;2023-09-19T09:33:12;5.05;;;1.98;;
8594;SDS011;4335;48.860;9.198;2023-09-19T09:35:48;2.00;;;1.50;;
8594;SDS011;4335;48.860;9.198;2023-09-19T09:38:23;2.92;;;1.50;;
8594;SDS011;4335;48.860;9.198;2023-09-19T09:40:53;1.80;;;1.50;;
8594;SDS011;4335;48.860;9.198;2023-09-19T09:43:27;1.65;;;1.42;;
8594;SDS011;4335;48.860;9.198;2023-09-19T09:46:11;2.03;;;1.20;;
8594;SDS011;4335;48.860;9.198;2023-09-19T09:48:56;2.47;;;1.00;;
8594;SDS011;4335;48.860;9.198;2023-09-19T09:51:48;2.83;;;1.50;;
8594;SDS011;4335;48.860;9.198;2023-09-19T09:54:28;3.53;;;1.85;;
8594;SDS011;4335;48.860;9.198;2023-09-19T09:57:01;2.45;;;1.95;;
8594;SDS011;4335;48.860;9.198;2023-09-19T09:59:45;2.22;;;1.27;;
8594;SDS011;4335;48.860;9.198;2023-09-19T10:02:15;2.17;;;1.50;;
8594;SDS011;4335;48.860;9.198;2023-09-19T10:04:48;2.53;;;1.75;;
8594;SDS011;4335;48.860;9.198;2023-09-19T10:07:25;5.72;;;2.85;;
8594;SDS011;4335;48.860;9.198;2023-09-19T10:09:58;2.42;;;1.77;;
8594;SDS011;4335;48.860;9.198;2023-09-19T10:12:36;2.47;;;1.45;;
8594;SDS011;4335;48.860;9.198;2023-09-19T10:15:11;1.77;;;1.35;;
8594;SDS011;4335;48.860;9.198;2023-09-19T10:17:41;1.90;;;1.20;;
8594;SDS011;4335;48.860;9.198;2023-09-19T10:20:10;2.00;;;1.40;;
8594;SDS011;4335;48.860;9.198;2023-09-19T10:22:59;2.00;;;1.40;;
8594;SDS011;4335;48.860;9.198;2023-09-19T10:25:27;1.90;;;1.23;;
8594;SDS011;4335;48.860;9.198;2023-09-19T10:28:00;2.63;;;1.23;;
8594;SDS011;4335;48.860;9.198;2023-09-19T10:30:29;2.50;;;1.17;;
8594;SDS011;4335;48.860;9.198;2023-09-19T10:33:05;2.88;;;1.30;;
8594;SDS011;4335;48.860;9.198;2023-09-19T10:35:33;4.57;;;1.60;;
8594;SDS011;4335;48.860;9.198;2023-09-19T10:38:05;1.60;;;1.33;;
8594;SDS011;4335;48.860;9.198;2023-09-19T10:40:37;2.78;;;1.58;;
8594;SDS011;4335;48.860;9.198;2023-09-19T10:43:11;2.25;;;1.42;;
8594;SDS011;4335;48.860;9.198;2023-09-19T10:45:38;3.65;;;1.58;;
8594;SDS011;4335;48.860;9.198;2023-09-19T10:48:07;3.03;;;1.52;;
8594;SDS011;4335;48.860;9.198;2023-09-19T10:50:34;2.13;;;1.77;;
8594;SDS011;4335;48.860;9.198;2023-09-19T10:53:10;2.67;;;1.85;;
8594;SDS011;4335;48.860;9.198;2023-09-19T10:55:46;1.75;;;1.35;;
8594;SDS011;4335;48.860;9.198;2023-09-19T10:58:32;2.15;;;1.30;;
8594;SDS011;4335;48.860;9.198;2023-09-19T11:01:02;1.98;;;1.30;;
8594;SDS011;4335;48.860;9.198;2023-09-19T11:03:32;3.60;;;2.05;;
8594;SDS011;4335;48.860;9.198;2023-09-19T11:06:02;2.15;;;1.40;;
8594;SDS011;4335;48.860;9.198;2023-09-19T11:11:42;2.50;;;1.30;;
8594;SDS011;4335;48.860;9.198;2023-09-19T11:14:30;4.50;;;1.50;;
8594;SDS011;4335;48.860;9.198;2023-09-19T11:20:22;1.60;;;1.42;;
8594;SDS011;4335;48.860;9.198;2023-09-19T11:23:17;2.20;;;1.75;;
8594;SDS011;4335;48.860;9.198;2023-09-19T11:25:48;2.67;;;1.37;;
8594;SDS011;4335;48.860;9.198;2023-09-19T11:28:33;4.17;;;1.63;;
8594;SDS011;4335;48.860;9.198;2023-09-19T11:40:46;2.90;;;1.80;;
8594;SDS011;4335;48.860;9.198;2023-09-19T11:43:34;2.67;;;1.43;;
8594;SDS011;4335;48.860;9.198;2023-09-19T11:46:07;3.77;;;1.67;;
8594;SDS011;4335;48.860;9.198;2023-09-19T11:48:40;1.70;;;1.30;;
8594;SDS011;4335;48.860;9.198;2023-09-19T11:51:13;3.70;;;1.50;;
8594;SDS011;4335;48.860;9.198;2023-09-19T11:53:52;2.57;;;2.00;;
8594;SDS011;4335;48.860;9.198;2023-09-19T11:56:20;2.27;;;1.37;;
8594;SDS011;4335;48.860;9.198;2023-09-19T11:58:50;1.83;;;1.50;;
8594;SDS011;4335;48.860;9.198;2023-09-19T12:01:21;2.83;;;1.63;;
8594;SDS011;4335;48.860;9.198;2023-09-19T12:03:52;2.70;;;1.60;;
8594;SDS011;4335;48.860;9.198;2023-09-19T12:06:23;2.00;;;1.40;;
8594;SDS011;4335;48.860;9.198;2023-09-19T12:08:50;2.80;;;1.60;;
8594;SDS011;4335;48.860;9.198;2023-09-19T12:11:19;3.63;;;1.50;;
8594;SDS011;4335;48.860;9.198;2023-09-19T12:14:00;3.60;;;1.43;;
8594;SDS011;4335;48.860;9.198;2023-09-19T12:16:35;2.20;;;1.50;;
8594;SDS011;4335;48.860;9.198;2023-09-19T12:19:17;2.40;;;1.47;;
8594;SDS011;4335;48.860;9.198;2023-09-19T12:21:59;2.37;;;1.33;;
8594;SDS011;4335;48.860;9.198;2023-09-19T12:24:29;4.10;;;1.67;;
8594;SDS011;4335;48.860;9.198;2023-09-19T12:26:59;1.93;;;1.40;;
8594;SDS011;4335;48.860;9.198;2023-09-19T12:29:30;2.27;;;1.40;;
8594;SDS011;4335;48.860;9.198;2023-09-19T12:32:00;2.37;;;1.53;;
8594;SDS011;4335;48.860;9.198;2023-09-19T12:34:29;3.03;;;1.60;;
8594;SDS011;4335;48.860;9.198;2023-09-19T12:37:09;1.90;;;1.60;;
8594;SDS011;4335;48.860;9.198;2023-09-19T12:39:41;3.87;;;1.53;;
8594;SDS011;4335;48.860;9.198;2023-09-19T12:42:10;2.37;;;1.70;;
8594;SDS011;4335;48.860;9.198;2023-09-19T12:44:41;3.40;;;1.97;;
8594;SDS011;4335;48.860;9.198;2023-09-19T12:47:10;2.33;;;1.80;;
8594;SDS011;4335;48.860;9.198;2023-09-19T12:52:36;3.37;;;1.70;;
8594;SDS011;4335;48.860;9.198;2023-09-19T12:55:19;4.03;;;1.90;;
8594;SDS011;4335;48.860;9.198;2023-09-19T12:58:00;3.73;;;2.20;;
8594;SDS011;4335;48.860;9.198;2023-09-19T13:00:35;2.00;;;1.60;;
8594;SDS011;4335;48.860;9.198;2023-09-19T13:05:54;4.93;;;1.63;;
8594;SDS011;4335;48.860;9.198;2023-09-19T13:08:26;1.87;;;1.67;;
8594;SDS011;4335;48.860;9.198;2023-09-19T13:11:07;4.20;;;1.70;;
8594;SDS011;4335;48.860;9.198;2023-09-19T13:13:37;1.77;;;1.67;;
8594;SDS011;4335;48.860;9.198;2023-09-19T13:16:10;3.00;;;1.63;;
8594;SDS011;4335;48.860;9.198;2023-09-19T13:18:46;1.50;;;1.40;;
8594;SDS011;4335;48.860;9.198;2023-09-19T13:21:16;1.97;;;1.60;;
8594;SDS011;4335;48.860;9.198;2023-09-19T13:23:52;1.70;;;1.37;;
8594;SDS011;4335;48.860;9.198;2023-09-19T13:26:21;2.90;;;1.63;;
8594;SDS011;4335;48.860;9.198;2023-09-19T13:28:48;2.20;;;1.53;;
8594;SDS011;4335;48.860;9.198;2023-09-19T13:31:21;1.63;;;1.30;;
8594;SDS011;4335;48.860;9.198;2023-09-19T13:33:57;1.80;;;1.33;;
8594;SDS011;4335;48.860;9.198;2023-09-19T13:36:24;2.80;;;1.70;;
8594;SDS011;4335;48.860;9.198;2023-09-19T13:39:00;3.43;;;1.83;;
8594;SDS011;4335;48.860;9.198;2023-09-19T13:41:26;1.90;;;1.70;;
8594;SDS011;4335;48.860;9.198;2023-09-19T13:43:54;1.80;;;1.60;;
8594;SDS011;4335;48.860;9.198;2023-09-19T13:46:25;2.10;;;1.70;;
8594;SDS011;4335;48.860;9.198;2023-09-19T13:48:52;2.53;;;1.67;;
8594;SDS011;4335;48.860;9.198;2023-09-19T13:51:20;2.73;;;1.73;;
8594;SDS011;4335;48.860;9.198;2023-09-19T13:53:48;2.43;;;1.80;;
8594;SDS011;4335;48.860;9.198;2023-09-19T13:56:17;3.00;;;2.03;;
8594;SDS011;4335;48.860;9.198;2023-09-19T13:58:47;2.93;;;2.00;;
8594;SDS011;4335;48.860;9.198;2023-09-19T14:01:14;1.67;;;1.57;;
8594;SDS011;4335;48.860;9.198;2023-09-19T14:03:46;2.83;;;1.60;;
8594;SDS011;4335;48.860;9.198;2023-09-19T14:06:15;2.67;;;1.90;;
8594;SDS011;4335;48.860;9.198;2023-09-19T14:08:43;3.13;;;1.90;;
8594;SDS011;4335;48.860;9.198;2023-09-19T14:11:13;2.50;;;2.00;;
8594;SDS011;4335;48.860;9.198;2023-09-19T14:13:44;3.70;;;2.70;;
8594;SDS011;4335;48.860;9.198;2023-09-19T14:16:13;2.50;;;1.67;;
8594;SDS011;4335;48.860;9.198;2023-09-19T14:18:44;3.37;;;2.63;;
8594;SDS011;4335;48.860;9.198;2023-09-19T14:21:12;2.67;;;2.00;;
8594;SDS011;4335;48.860;9.198;2023-09-19T14:23:39;2.03;;;1.80;;
8594;SDS011;4335;48.860;9.198;2023-09-19T14:26:07;2.47;;;1.67;;
8594;SDS011;4335;48.860;9.198;2023-09-19T14:28:35;2.20;;;1.70;;
8594;SDS011;4335;48.860;9.198;2023-09-19T14:31:05;4.13;;;1.70;;
8594;SDS011;4335;48.860;9.198;2023-09-19T14:33:37;2.20;;;1.87;;
8594;SDS011;4335;48.860;9.198;2023-09-19T14:36:09;3.30;;;2.30;;
8594;SDS011;4335;48.860;9.198;2023-09-19T14:38:36;3.33;;;1.67;;
8594;SDS011;4335;48.860;9.198;2023-09-19T14:41:04;2.33;;;1.97;;
8594;SDS011;4335;48.860;9.198;2023-09-19T14:43:31;1.70;;;1.27;;
8594;SDS011;4335;48.860;9.198;2023-09-19T14:46:02;3.40;;;2.77;;
8594;SDS011;4335;48.860;9.198;2023-09-19T14:48:29;2.57;;;1.80;;
8594;SDS011;4335;48.860;9.198;2023-09-19T14:50:57;3.40;;;2.57;;
8594;SDS011;4335;48.860;9.198;2023-09-19T14:53:32;4.77;;;1.90;;
8594;SDS011;4335;48.860;9.198;2023-09-19T14:55:59;2.93;;;1.63;;
8594;SDS011;4335;48.860;9.198;2023-09-19T14:58:28;3.03;;;1.80;;
8594;SDS011;4335;48.860;9.198;2023-09-19T15:01:02;2.27;;;1.70;;
8594;SDS011;4335;48.860;9.198;2023-09-19T15:03:30;2.13;;;1.70;;
8594;SDS011;4335;48.860;9.198;2023-09-19T15:06:00;2.73;;;1.73;;
8594;SDS011;4335;48.860;9.198;2023-09-19T15:08:40;2.33;;;1.87;;
8594;SDS011;4335;48.860;9.198;2023-09-19T15:11:11;3.23;;;2.23;;
8594;SDS011;4335;48.860;9.198;2023-09-19T15:13:38;3.17;;;2.30;;
8594;SDS011;4335;48.860;9.198;2023-09-19T15:16:08;2.03;;;1.80;;
8594;SDS011;4335;48.860;9.198;2023-09-19T15:18:38;2.90;;;1.50;;
8594;SDS011;4335;48.860;9.198;2023-09-19T15:21:15;3.80;;;1.70;;
8594;SDS011;4335;48.860;9.198;2023-09-19T15:23:43;3.57;;;1.50;;
8594;SDS011;4335;48.860;9.198;2023-09-19T15:26:11;2.17;;;1.70;;
8594;SDS011;4335;48.860;9.198;2023-09-19T15:28:41;2.00;;;1.80;;
8594;SDS011;4335;48.860;9.198;2023-09-19T15:31:09;3.33;;;2.00;;
8594;SDS011;4335;48.860;9.198;2023-09-19T15:33:37;1.90;;;1.57;;
8594;SDS011;4335;48.860;9.198;2023-09-19T15:36:04;2.87;;;1.63;;
8594;SDS011;4335;48.860;9.198;2023-09-19T15:38:50;1.90;;;1.47;;
8594;SDS011;4335;48.860;9.198;2023-09-19T15:41:24;1.90;;;1.43;;
8594;SDS011;4335;48.860;9.198;2023-09-19T15:43:56;1.83;;;1.43;;
8594;SDS011;4335;48.860;9.198;2023-09-19T15:46:24;1.50;;;1.40;;
8594;SDS011;4335;48.860;9.198;2023-09-19T15:48:54;3.77;;;1.50;;
8594;SDS011;4335;48.860;9.198;2023-09-19T15:51:21;1.43;;;1.33;;
8594;SDS011;4335;48.860;9.198;2023-09-19T15:53:51;2.00;;;1.40;;
8594;SDS011;4335;48.860;9.198;2023-09-19T15:56:21;3.00;;;1.47;;
8594;SDS011;4335;48.860;9.198;2023-09-19T15:58:53;2.13;;;1.30;;
8594;SDS011;4335;48.860;9.198;2023-09-19T16:01:21;2.33;;;1.80;;